Time;durP1;ratioP1;P1;durP2;ratioP2;P2;SDS_P1;SDS_P2;PMS_P1;PMS_P2;Temp;Humidity;BMP_temperature;BMP_pressure;BME280_temperature;BME280_humidity;BME280_pressure;Samples;Min_cycle;Max_cycle;Signal;HPM_P1;HPM_P2
2021/08/03 00:02:26;;;;;;;6.18;2.85;;;13.30;99.90;;;;;;5115757;28;20135;-58
2021/08/03 00:04:55;;;;;;;4.43;2.05;;;13.40;99.90;;;;;;5115670;28;20043;-58
2021/08/03 00:07:22;;;;;;;6.70;2.17;;;13.30;99.90;;;;;;5115471;28;20031;-59
2021/08/03 00:09:49;;;;;;;6.75;1.77;;;13.30;99.90;;;;;;5115265;28;20111;-59
2021/08/03 00:12:16;;;;;;;9.70;2.08;;;13.20;99.90;;;;;;5115316;28;20047;-58
2021/08/03 00:14:44;;;;;;;3.00;1.70;;;13.30;99.90;;;;;;5115241;28;20047;-58
2021/08/03 00:17:16;;;;;;;5.30;1.88;;;13.30;99.90;;;;;;5097201;28;20051;-58
2021/08/03 00:19:44;;;;;;;2.92;1.77;;;13.20;99.90;;;;;;5115242;28;20046;-58
2021/08/03 00:22:10;;;;;;;5.03;2.15;;;13.20;99.90;;;;;;5115040;28;20477;-58
2021/08/03 00:24:36;;;;;;;6.40;2.30;;;13.20;99.90;;;;;;5115112;28;20051;-57
2021/08/03 00:27:04;;;;;;;5.68;2.30;;;13.20;99.90;;;;;;5115010;28;20047;-58
2021/08/03 00:29:29;;;;;;;3.90;2.03;;;13.20;99.90;;;;;;5115006;28;20036;-58
2021/08/03 00:31:56;;;;;;;8.23;2.20;;;13.20;99.90;;;;;;5114827;28;20050;-58
2021/08/03 00:34:22;;;;;;;5.72;2.38;;;13.20;99.90;;;;;;5114945;28;20366;-58
2021/08/03 00:36:48;;;;;;;3.70;1.90;;;13.20;99.90;;;;;;5115040;28;20044;-58
2021/08/03 00:39:14;;;;;;;6.60;2.38;;;13.20;99.90;;;;;;5114799;28;20050;-58
2021/08/03 00:41:50;;;;;;;6.18;2.40;;;13.20;99.90;;;;;;5114620;28;20043;-58
2021/08/03 00:44:16;;;;;;;2.47;2.20;;;13.20;99.90;;;;;;5115015;28;20075;-58
2021/08/03 00:46:43;;;;;;;6.95;2.40;;;13.00;99.90;;;;;;5114918;28;20102;-58
2021/08/03 00:49:08;;;;;;;4.00;2.50;;;13.10;99.90;;;;;;5105226;28;20362;-58
2021/08/03 00:51:36;;;;;;;3.65;2.00;;;13.00;99.90;;;;;;5114757;28;20059;-58
2021/08/03 00:54:02;;;;;;;4.15;2.38;;;13.00;99.90;;;;;;5114380;28;20077;-59
2021/08/03 00:56:29;;;;;;;7.38;2.35;;;13.00;99.90;;;;;;5114324;28;20052;-59
2021/08/03 00:58:56;;;;;;;3.58;2.65;;;13.10;99.90;;;;;;5114645;28;20047;-58
2021/08/03 01:01:21;;;;;;;4.68;3.30;;;13.00;99.90;;;;;;5114173;28;20048;-59
2021/08/03 01:03:47;;;;;;;4.55;2.58;;;12.90;99.90;;;;;;5114409;28;20044;-58
2021/08/03 01:06:15;;;;;;;4.97;2.15;;;12.90;99.90;;;;;;5114193;28;20160;-59
2021/08/03 01:08:47;;;;;;;3.35;2.53;;;12.90;99.90;;;;;;5114311;28;20063;-58
2021/08/03 01:11:23;;;;;;;3.25;2.60;;;12.80;99.90;;;;;;5114242;28;20452;-58
2021/08/03 01:14:11;;;;;;;4.10;2.42;;;12.80;99.90;;;;;;5114184;28;20048;-58
2021/08/03 01:16:55;;;;;;;8.18;1.98;;;12.70;99.90;;;;;;5114185;28;20050;-58
2021/08/03 01:19:53;;;;;;;3.85;2.47;;;12.70;99.90;;;;;;5114291;28;20043;-58
2021/08/03 01:22:49;;;;;;;4.78;2.90;;;12.70;99.90;;;;;;5114106;28;20047;-59
2021/08/03 01:25:35;;;;;;;4.22;2.40;;;12.70;99.90;;;;;;5114202;28;20074;-58
2021/08/03 01:28:12;;;;;;;7.60;2.50;;;12.70;99.90;;;;;;5113971;28;20044;-59
2021/08/03 01:30:43;;;;;;;2.50;2.30;;;12.80;99.90;;;;;;5113825;28;20039;-59
2021/08/03 01:33:11;;;;;;;5.85;2.47;;;12.70;99.90;;;;;;5113839;28;20048;-58
2021/08/03 01:35:41;;;;;;;4.43;2.80;;;12.70;99.90;;;;;;5113829;28;20476;-59
2021/08/03 01:38:08;;;;;;;3.08;2.13;;;12.70;99.90;;;;;;5113661;28;20393;-59
2021/08/03 01:40:36;;;;;;;7.20;3.10;;;12.60;99.90;;;;;;5113761;28;20122;-59
2021/08/03 01:43:04;;;;;;;3.42;2.60;;;12.60;99.90;;;;;;5113447;28;20096;-59
2021/08/03 01:45:32;;;;;;;2.50;2.30;;;12.60;99.90;;;;;;5113645;28;20055;-59
2021/08/03 01:47:57;;;;;;;3.80;2.22;;;12.70;99.90;;;;;;5113561;28;20044;-58
2021/08/03 01:50:24;;;;;;;3.65;2.80;;;12.60;99.90;;;;;;5113399;28;20039;-59
2021/08/03 01:52:53;;;;;;;2.60;1.95;;;12.70;99.90;;;;;;5113526;28;20047;-58
2021/08/03 01:55:20;;;;;;;4.60;1.95;;;12.60;99.90;;;;;;5113487;28;20070;-58
2021/08/03 01:57:46;;;;;;;2.63;2.35;;;12.60;99.90;;;;;;5113210;28;20059;-58
2021/08/03 02:00:12;;;;;;;3.05;2.55;;;12.50;99.90;;;;;;5113032;28;20044;-58
2021/08/03 02:02:39;;;;;;;4.90;2.30;;;12.50;99.90;;;;;;5113202;28;20090;-58
2021/08/03 02:05:06;;;;;;;4.05;2.42;;;12.50;99.90;;;;;;5113007;28;20046;-58
2021/08/03 02:07:34;;;;;;;2.30;2.10;;;12.50;99.90;;;;;;5113323;28;20039;-58
2021/08/03 02:10:00;;;;;;;2.30;2.10;;;12.30;99.90;;;;;;5113188;28;20035;-58
2021/08/03 02:12:26;;;;;;;2.30;1.83;;;12.30;99.90;;;;;;5113157;28;20036;-59
2021/08/03 02:14:52;;;;;;;2.97;2.10;;;12.20;99.90;;;;;;5113099;28;20051;-58
2021/08/03 02:17:20;;;;;;;3.45;3.08;;;12.20;99.90;;;;;;5112775;28;20393;-59
2021/08/03 02:19:46;;;;;;;2.33;1.90;;;12.20;99.90;;;;;;5113152;28;20058;-59
2021/08/03 02:22:13;;;;;;;2.58;2.20;;;12.30;99.90;;;;;;5112817;28;20393;-58
2021/08/03 02:24:39;;;;;;;5.90;2.20;;;12.30;99.90;;;;;;5112864;28;20035;-58
2021/08/03 02:27:05;;;;;;;3.47;2.28;;;12.30;99.90;;;;;;5112805;28;20047;-58
2021/08/03 02:29:37;;;;;;;3.47;2.35;;;12.30;99.90;;;;;;5112750;28;20470;-58
2021/08/03 02:32:13;;;;;;;3.75;2.65;;;12.20;99.90;;;;;;5112710;28;20092;-58
2021/08/03 02:34:44;;;;;;;4.13;2.10;;;12.10;99.90;;;;;;5112827;28;20074;-58
2021/08/03 02:37:17;;;;;;;5.93;2.20;;;12.10;99.90;;;;;;5112687;28;20039;-58
2021/08/03 02:39:45;;;;;;;3.03;2.72;;;12.10;99.90;;;;;;5112704;28;20051;-58
2021/08/03 02:42:11;;;;;;;3.15;2.22;;;12.10;99.90;;;;;;5112535;28;20489;-58
2021/08/03 02:44:39;;;;;;;3.15;2.70;;;12.20;99.90;;;;;;5112560;28;20047;-58
2021/08/03 02:47:18;;;;;;;2.15;1.90;;;12.20;99.90;;;;;;5112705;28;20039;-58
2021/08/03 02:49:50;;;;;;;2.88;2.00;;;12.20;99.90;;;;;;5112666;28;20047;-58
2021/08/03 02:52:21;;;;;;;1.88;1.67;;;12.10;99.90;;;;;;5112584;28;20408;-58
2021/08/03 02:55:05;;;;;;;3.40;1.63;;;12.10;99.90;;;;;;5112391;28;20046;-58
2021/08/03 02:57:34;;;;;;;1.60;1.50;;;12.20;99.90;;;;;;5112430;28;20425;-58
2021/08/03 03:00:01;;;;;;;3.63;1.73;;;12.10;99.90;;;;;;5112620;28;20047;-58
2021/08/03 03:02:31;;;;;;;1.60;1.45;;;12.10;99.90;;;;;;5112400;28;20131;-57
2021/08/03 03:05:02;;;;;;;1.92;1.70;;;12.10;99.90;;;;;;5112420;28;20043;-58
2021/08/03 03:07:42;;;;;;;2.30;1.80;;;12.10;99.90;;;;;;5112478;28;20039;-58
2021/08/03 03:10:15;;;;;;;2.92;1.70;;;12.10;99.90;;;;;;5112170;28;20042;-58
2021/08/03 03:12:47;;;;;;;2.63;1.88;;;11.90;99.90;;;;;;5114157;28;20439;-58
2021/08/03 03:15:16;;;;;;;4.03;2.38;;;11.90;99.90;;;;;;5116658;28;20054;-58
2021/08/03 03:17:42;;;;;;;;;;;12.00;99.90;;;;;;5116946;28;20090;-58
2021/08/03 03:20:08;;;;;;;2.83;2.10;;;12.00;99.90;;;;;;5115084;28;20373;-57
2021/08/03 03:22:40;;;;;;;2.35;2.05;;;12.00;99.90;;;;;;5116134;28;20114;-58
2021/08/03 03:25:06;;;;;;;3.28;1.83;;;12.10;99.90;;;;;;5116491;28;20061;-58
2021/08/03 03:27:33;;;;;;;2.70;2.08;;;12.00;99.90;;;;;;5116202;28;20082;-58
2021/08/03 03:30:00;;;;;;;3.53;1.80;;;12.00;99.90;;;;;;5116182;28;20039;-58
2021/08/03 03:32:30;;;;;;;3.65;2.92;;;12.00;99.90;;;;;;5116108;28;20077;-58
2021/08/03 03:34:58;;;;;;;4.13;2.60;;;12.00;99.90;;;;;;5116337;28;20066;-58
2021/08/03 03:37:30;;;;;;;8.65;2.80;;;12.00;99.90;;;;;;5116250;28;20051;-58
2021/08/03 03:39:57;;;;;;;4.28;2.35;;;12.00;99.90;;;;;;5116205;28;20059;-58
2021/08/03 03:42:28;;;;;;;3.22;2.55;;;11.90;99.90;;;;;;5115988;28;20048;-58
2021/08/03 03:44:54;;;;;;;2.90;2.42;;;11.80;99.90;;;;;;5116031;28;20112;-58
2021/08/03 03:47:26;;;;;;;3.42;2.72;;;11.90;99.90;;;;;;5115865;28;20047;-58
2021/08/03 03:49:58;;;;;;;6.43;2.78;;;11.90;99.90;;;;;;5115938;28;20387;-58
2021/08/03 03:52:26;;;;;;;3.95;2.97;;;11.90;99.90;;;;;;5115881;28;20130;-58
2021/08/03 03:54:53;;;;;;;3.42;3.13;;;11.90;99.90;;;;;;5115869;28;20047;-58
2021/08/03 03:57:21;;;;;;;4.30;2.40;;;11.80;99.90;;;;;;5115493;28;20159;-58
2021/08/03 03:59:49;;;;;;;5.85;2.58;;;11.90;99.90;;;;;;5115501;28;20032;-58
2021/08/03 04:02:18;;;;;;;4.72;2.88;;;11.90;99.90;;;;;;5115447;28;20043;-58
2021/08/03 04:04:46;;;;;;;3.70;2.88;;;11.90;99.90;;;;;;5115508;28;20039;-58
2021/08/03 04:07:11;;;;;;;6.15;2.80;;;11.90;99.90;;;;;;5115568;28;20039;-58
2021/08/03 04:09:38;;;;;;;4.78;3.28;;;12.00;99.90;;;;;;5115312;28;20043;-57
2021/08/03 04:12:04;;;;;;;3.78;2.60;;;12.10;99.90;;;;;;5115402;28;20039;-58
2021/08/03 04:14:34;;;;;;;7.70;3.50;;;12.10;99.90;;;;;;5115384;28;20050;-57
2021/08/03 04:17:00;;;;;;;5.18;3.00;;;12.20;99.90;;;;;;5115514;28;20094;-58
2021/08/03 04:19:26;;;;;;;4.07;3.13;;;12.30;99.90;;;;;;5115382;28;20486;-57
2021/08/03 04:21:51;;;;;;;6.18;3.72;;;12.30;99.90;;;;;;5114972;28;20073;-58
2021/08/03 04:24:18;;;;;;;5.35;3.88;;;12.40;99.90;;;;;;5114912;28;20040;-58
2021/08/03 04:26:45;;;;;;;4.40;3.45;;;12.50;99.90;;;;;;5115152;28;20050;-58
2021/08/03 04:29:11;;;;;;;4.63;3.15;;;12.50;99.90;;;;;;5115300;28;20074;-58
2021/08/03 04:31:39;;;;;;;9.40;3.30;;;12.50;99.90;;;;;;5115120;28;20040;-58
2021/08/03 04:34:05;;;;;;;4.65;3.53;;;12.60;99.90;;;;;;5114900;28;20167;-57
2021/08/03 04:36:30;;;;;;;6.07;3.80;;;12.70;99.90;;;;;;5115002;28;20366;-58
2021/08/03 04:38:56;;;;;;;4.40;3.58;;;12.60;99.90;;;;;;5114872;28;20071;-58
2021/08/03 04:41:23;;;;;;;7.20;4.43;;;12.70;99.90;;;;;;5114774;28;20400;-58
2021/08/03 04:43:48;;;;;;;10.25;3.40;;;12.60;99.90;;;;;;5114821;28;20044;-58
2021/08/03 04:46:14;;;;;;;3.83;3.42;;;12.60;99.90;;;;;;5112932;28;20051;-58
2021/08/03 04:48:41;;;;;;;5.15;3.40;;;12.70;99.90;;;;;;5094425;28;20051;-58
2021/08/03 04:51:07;;;;;;;4.35;3.22;;;12.70;99.90;;;;;;5094159;28;20440;-58
2021/08/03 04:53:33;;;;;;;5.90;3.67;;;12.80;99.90;;;;;;5094258;28;20051;-58
2021/08/03 04:55:59;;;;;;;4.05;3.20;;;12.80;99.90;;;;;;5094302;28;20047;-58
2021/08/03 04:58:24;;;;;;;5.60;3.90;;;12.90;99.90;;;;;;5094216;28;20157;-58
2021/08/03 05:00:52;;;;;;;7.80;4.25;;;13.00;99.90;;;;;;5094259;28;20051;-58
2021/08/03 05:03:17;;;;;;;6.63;3.75;;;12.90;99.90;;;;;;5093894;28;20040;-58
2021/08/03 05:05:43;;;;;;;8.63;3.90;;;13.00;99.90;;;;;;5093870;28;20036;-58
2021/08/03 05:08:09;;;;;;;5.03;3.45;;;13.10;99.90;;;;;;5093956;28;20040;-58
2021/08/03 05:10:36;;;;;;;6.63;3.60;;;13.10;99.90;;;;;;5093883;28;20032;-58
2021/08/03 05:13:02;;;;;;;3.83;3.03;;;13.10;99.90;;;;;;5094009;28;20052;-58
2021/08/03 05:15:28;;;;;;;4.63;3.72;;;13.10;99.90;;;;;;5093718;28;20067;-59
2021/08/03 05:17:54;;;;;;;5.13;3.38;;;13.20;99.90;;;;;;5093933;28;20082;-58
2021/08/03 05:20:20;;;;;;;7.15;3.75;;;13.30;99.90;;;;;;5093336;28;20075;-58
2021/08/03 05:22:46;;;;;;;4.43;3.63;;;13.40;99.90;;;;;;5111065;28;20036;-59
2021/08/03 05:25:12;;;;;;;6.97;3.55;;;13.40;99.90;;;;;;5114023;28;20075;-58
2021/08/03 05:27:39;;;;;;;8.60;3.75;;;13.50;99.90;;;;;;5111399;28;20036;-59
2021/08/03 05:30:06;;;;;;;7.32;3.65;;;13.50;99.90;;;;;;5093455;28;20070;-58
2021/08/03 05:32:32;;;;;;;5.10;3.65;;;13.50;99.90;;;;;;5097358;28;20068;-58
2021/08/03 05:34:57;;;;;;;5.90;3.45;;;13.60;99.90;;;;;;5106983;28;20075;-59
2021/08/03 05:37:23;;;;;;;4.53;3.45;;;13.70;99.90;;;;;;5103710;28;20092;-59
2021/08/03 05:39:49;;;;;;;5.43;3.60;;;13.70;99.90;;;;;;5113233;28;20062;-59
2021/08/03 05:42:15;;;;;;;6.60;3.88;;;13.90;99.90;;;;;;5110932;28;20104;-59
2021/08/03 05:44:41;;;;;;;5.38;3.55;;;13.90;99.90;;;;;;5103882;28;20432;-58
2021/08/03 05:47:07;;;;;;;5.82;3.45;;;14.00;99.90;;;;;;5097504;28;20119;-58
2021/08/03 05:49:32;;;;;;;6.78;3.90;;;14.00;99.90;;;;;;5113384;28;20039;-58
2021/08/03 05:52:00;;;;;;;9.40;4.57;;;14.10;99.90;;;;;;5113041;28;20667;-58
2021/08/03 05:54:26;;;;;;;6.43;4.00;;;14.20;99.90;;;;;;5104717;28;20139;-58
2021/08/03 05:56:52;;;;;;;6.10;4.18;;;14.20;99.90;;;;;;5104125;28;20228;-58
2021/08/03 05:59:18;;;;;;;6.07;3.50;;;14.20;99.90;;;;;;5113096;28;20468;-58
2021/08/03 06:01:44;;;;;;;5.18;3.65;;;14.30;99.90;;;;;;5112911;28;20078;-58
2021/08/03 06:04:10;;;;;;;6.10;3.47;;;14.30;99.90;;;;;;5106347;28;20397;-58
2021/08/03 06:06:42;;;;;;;7.18;3.22;;;14.30;99.90;;;;;;5108506;28;20040;-58
2021/08/03 06:09:10;;;;;;;7.20;3.40;;;14.40;99.90;;;;;;5100343;28;20178;-58
2021/08/03 06:11:44;;;;;;;4.50;3.30;;;14.40;99.90;;;;;;5104322;28;20034;-58
2021/08/03 06:14:11;;;;;;;6.65;3.17;;;14.50;99.90;;;;;;5111396;28;20122;-59
2021/08/03 06:16:38;;;;;;;4.20;3.15;;;14.60;99.90;;;;;;5109585;28;20047;-58
2021/08/03 06:19:05;;;;;;;5.72;3.47;;;14.70;99.90;;;;;;5096070;28;20097;-58
2021/08/03 06:21:31;;;;;;;6.15;3.13;;;14.80;99.90;;;;;;5104538;28;20371;-58
2021/08/03 06:23:57;;;;;;;5.88;3.65;;;14.80;99.90;;;;;;5101769;28;20050;-59
2021/08/03 06:26:23;;;;;;;4.70;2.80;;;14.80;99.90;;;;;;5108317;28;20071;-58
2021/08/03 06:28:51;;;;;;;5.32;3.45;;;14.90;99.90;;;;;;5103777;28;20054;-59
2021/08/03 06:31:18;;;;;;;4.50;2.90;;;15.00;99.90;;;;;;5104909;28;20089;-58
2021/08/03 06:33:47;;;;;;;8.23;3.55;;;15.10;99.90;;;;;;5111619;28;20281;-59
2021/08/03 06:36:14;;;;;;;6.85;3.95;;;15.10;99.90;;;;;;5112651;28;20526;-59
2021/08/03 06:38:40;;;;;;;4.85;2.67;;;15.10;99.90;;;;;;5111434;28;20104;-58
2021/08/03 06:41:28;;;;;;;5.82;3.33;;;15.30;99.90;;;;;;5112569;28;20052;-58
2021/08/03 06:44:04;;;;;;;5.15;3.40;;;15.50;99.90;;;;;;5112449;28;20054;-58
2021/08/03 06:46:39;;;;;;;6.88;3.00;;;15.80;99.90;;;;;;5112228;28;20439;-58
2021/08/03 06:49:07;;;;;;;4.85;3.28;;;16.10;99.90;;;;;;5122580;27;20511;-58
2021/08/03 06:51:36;;;;;;;5.43;3.05;;;16.50;99.90;;;;;;5132803;27;20035;-58
2021/08/03 06:54:06;;;;;;;;;;;16.80;99.90;;;;;;5133199;27;20043;-58
2021/08/03 06:57:08;;;;;;;5.50;2.10;;;17.20;99.90;;;;;;5132487;27;20387;-59
2021/08/03 06:59:45;;;;;;;3.53;1.75;;;17.60;99.90;;;;;;5132822;27;20050;-58
2021/08/03 07:02:21;;;;;;;4.55;1.60;;;17.80;99.90;;;;;;5132560;27;20031;-59
2021/08/03 07:05:00;;;;;;;3.28;1.80;;;18.20;99.90;;;;;;5132781;28;20047;-59
2021/08/03 07:07:27;;;;;;;3.40;1.30;;;18.60;99.90;;;;;;5132582;28;20054;-59
2021/08/03 07:09:55;;;;;;;2.97;1.17;;;18.80;99.90;;;;;;5132595;28;20039;-58
2021/08/03 07:12:22;;;;;;;5.05;1.42;;;19.10;99.90;;;;;;5132566;28;20047;-59
2021/08/03 07:14:49;;;;;;;2.88;1.10;;;19.30;99.90;;;;;;5132502;28;20123;-58
2021/08/03 07:17:15;;;;;;;3.03;1.00;;;19.50;99.90;;;;;;5132537;28;20074;-58
2021/08/03 07:19:44;;;;;;;2.97;1.55;;;19.80;99.90;;;;;;5132672;28;20122;-59
2021/08/03 07:22:18;;;;;;;2.05;0.98;;;20.10;99.90;;;;;;5114300;28;20042;-58
2021/08/03 07:24:46;;;;;;;2.22;1.13;;;20.20;99.90;;;;;;5132678;28;20054;-59
2021/08/03 07:27:12;;;;;;;4.57;1.50;;;20.50;99.90;;;;;;5132578;28;20043;-59
2021/08/03 07:29:38;;;;;;;6.00;1.05;;;20.70;99.90;;;;;;5132647;28;20289;-59
2021/08/03 07:32:06;;;;;;;1.90;0.80;;;21.10;99.90;;;;;;5132642;28;20392;-58
2021/08/03 07:34:32;;;;;;;5.47;1.10;;;21.10;99.90;;;;;;5132492;28;20506;-58
2021/08/03 07:37:00;;;;;;;7.60;1.65;;;21.20;99.90;;;;;;5132819;28;20154;-59
2021/08/03 07:39:26;;;;;;;1.80;0.80;;;21.00;99.90;;;;;;5132562;28;20047;-60
2021/08/03 07:41:53;;;;;;;1.52;0.65;;;21.10;99.90;;;;;;5132419;28;20502;-59
2021/08/03 07:44:19;;;;;;;8.63;1.00;;;20.90;99.90;;;;;;5132616;28;20402;-59
2021/08/03 07:46:45;;;;;;;3.05;1.30;;;21.00;99.90;;;;;;5132284;28;20477;-59
2021/08/03 07:49:10;;;;;;;2.22;1.30;;;21.00;99.90;;;;;;5132244;28;20031;-59
2021/08/03 07:51:36;;;;;;;2.70;1.10;;;21.40;99.90;;;;;;5132342;28;20039;-59
2021/08/03 07:54:02;;;;;;;3.95;0.90;;;21.60;99.90;;;;;;5132256;28;20057;-59
2021/08/03 07:56:28;;;;;;;2.97;0.95;;;21.80;99.90;;;;;;5132126;28;20031;-59
2021/08/03 07:58:54;;;;;;;3.25;0.60;;;22.10;99.90;;;;;;5133935;27;20051;-60
2021/08/03 08:01:19;;;;;;;2.28;0.50;;;22.40;99.90;;;;;;5135907;27;20070;-59
2021/08/03 08:03:46;;;;;;;1.80;0.70;;;22.70;99.90;;;;;;5135804;27;20362;-60
2021/08/03 08:06:13;;;;;;;2.42;0.90;;;22.50;99.90;;;;;;5135891;27;20070;-59
2021/08/03 08:08:39;;;;;;;2.05;1.02;;;22.10;99.90;;;;;;5135805;27;20081;-59
2021/08/03 08:11:05;;;;;;;3.33;0.98;;;22.20;99.90;;;;;;5135780;27;20047;-59
2021/08/03 08:13:30;;;;;;;2.85;1.20;;;22.50;99.90;;;;;;5135781;27;20538;-60
2021/08/03 08:15:56;;;;;;;1.85;1.00;;;22.60;99.90;;;;;;5135557;27;20054;-60
2021/08/03 08:18:22;;;;;;;2.97;0.88;;;23.10;99.90;;;;;;5135585;27;20121;-60
2021/08/03 08:20:48;;;;;;;3.05;1.20;;;23.30;99.90;;;;;;5135740;27;20422;-59
2021/08/03 08:23:15;;;;;;;3.10;1.10;;;23.50;99.90;;;;;;5135605;27;20075;-60
2021/08/03 08:25:41;;;;;;;3.42;0.98;;;23.70;99.90;;;;;;5135601;27;20050;-60
2021/08/03 08:28:07;;;;;;;1.05;0.77;;;24.00;99.90;;;;;;5135456;27;20035;-60
2021/08/03 08:30:34;;;;;;;2.10;0.80;;;23.60;99.90;;;;;;5135768;27;20468;-59
2021/08/03 08:33:00;;;;;;;2.00;0.60;;;22.70;99.90;;;;;;5135358;27;20500;-59
2021/08/03 08:35:26;;;;;;;3.63;0.85;;;22.30;99.90;;;;;;5135450;27;20043;-59
2021/08/03 08:37:52;;;;;;;6.15;0.77;;;21.90;99.90;;;;;;5135651;27;20360;-60
2021/08/03 08:40:17;;;;;;;3.40;0.60;;;21.50;99.90;;;;;;5135448;27;20044;-59
2021/08/03 08:42:47;;;;;;;3.30;0.85;;;21.40;99.90;;;;;;5135144;27;20130;-59
2021/08/03 08:45:15;;;;;;;1.33;0.80;;;21.00;99.90;;;;;;5135276;27;20376;-59
2021/08/03 08:47:47;;;;;;;2.50;0.70;;;20.80;99.90;;;;;;5135490;27;20058;-59
2021/08/03 08:50:16;;;;;;;1.75;0.88;;;20.70;99.90;;;;;;5135065;27;20106;-59
2021/08/03 08:52:45;;;;;;;;;;;20.30;99.90;;;;;;5135503;27;20127;-60
2021/08/03 08:55:11;;;;;;;3.90;0.88;;;20.20;99.90;;;;;;5135004;27;20357;-59
2021/08/03 08:57:38;;;;;;;0.95;0.80;;;20.10;99.90;;;;;;5134839;27;20076;-59
2021/08/03 09:00:06;;;;;;;3.97;0.70;;;20.00;99.90;;;;;;5134866;27;20078;-59
2021/08/03 09:02:46;;;;;;;3.40;0.70;;;19.90;99.90;;;;;;5134745;27;20096;-59
2021/08/03 09:05:14;;;;;;;1.30;1.00;;;19.90;99.90;;;;;;5134807;27;20303;-60
2021/08/03 09:07:52;;;;;;;4.45;1.20;;;19.80;99.90;;;;;;5134866;27;20043;-60
2021/08/03 09:10:27;;;;;;;1.42;1.02;;;19.70;99.90;;;;;;5133362;27;20035;-59
2021/08/03 09:13:20;;;;;;;2.42;0.95;;;19.70;99.90;;;;;;5134778;27;20042;-59
2021/08/03 09:15:55;;;;;;;5.82;1.00;;;19.80;99.90;;;;;;5130926;27;20046;-59
2021/08/03 09:18:39;;;;;;;2.97;0.75;;;19.80;99.90;;;;;;5134394;27;20118;-59
2021/08/03 09:21:05;;;;;;;3.65;0.80;;;19.60;99.90;;;;;;5134642;27;20051;-59
2021/08/03 09:23:46;;;;;;;2.10;0.80;;;19.40;99.90;;;;;;5134401;27;20039;-59
2021/08/03 09:26:14;;;;;;;2.17;0.70;;;19.40;99.90;;;;;;5134293;27;20047;-59
2021/08/03 09:29:00;;;;;;;2.22;0.63;;;19.30;99.90;;;;;;5134303;27;20038;-59
2021/08/03 09:31:27;;;;;;;3.40;1.02;;;19.10;99.90;;;;;;5134438;27;20091;-60
2021/08/03 09:33:53;;;;;;;2.08;0.90;;;19.10;99.90;;;;;;5134326;27;20401;-59
2021/08/03 09:36:46;;;;;;;2.58;0.65;;;19.00;99.90;;;;;;5134387;27;20357;-59
2021/08/03 09:39:44;;;;;;;5.60;0.90;;;18.90;99.90;;;;;;5134021;27;20031;-59
2021/08/03 09:42:20;;;;;;;0.82;0.80;;;18.90;99.90;;;;;;5133339;27;20039;-60
2021/08/03 09:44:47;;;;;;;1.90;0.90;;;18.90;99.90;;;;;;5133996;27;20040;-60
2021/08/03 09:47:14;;;;;;;3.35;0.93;;;18.90;99.90;;;;;;5133892;27;20050;-59
2021/08/03 09:49:42;;;;;;;1.48;0.80;;;18.90;99.90;;;;;;5133784;27;20108;-59
2021/08/03 09:52:11;;;;;;;3.38;1.10;;;18.90;99.90;;;;;;5134039;27;20055;-59
2021/08/03 09:54:37;;;;;;;1.65;0.82;;;19.00;99.90;;;;;;5133629;27;20054;-59
2021/08/03 09:57:04;;;;;;;6.30;1.35;;;19.00;99.90;;;;;;5133692;27;20039;-59
2021/08/03 09:59:37;;;;;;;3.15;0.80;;;19.10;99.90;;;;;;5133723;27;20046;-59
2021/08/03 10:02:04;;;;;;;2.33;0.90;;;19.00;99.90;;;;;;5133407;27;20044;-59
2021/08/03 10:04:32;;;;;;;2.50;1.13;;;19.00;99.90;;;;;;5133611;27;20031;-60
2021/08/03 10:06:58;;;;;;;2.10;1.13;;;19.10;99.90;;;;;;5133756;27;20040;-60
2021/08/03 10:09:25;;;;;;;1.50;0.90;;;19.10;99.90;;;;;;5133550;27;20293;-59
2021/08/03 10:11:54;;;;;;;1.90;0.70;;;19.10;99.90;;;;;;5133455;27;20063;-59
2021/08/03 10:14:21;;;;;;;2.15;0.80;;;19.10;99.90;;;;;;5133537;27;20035;-60
2021/08/03 10:16:47;;;;;;;2.10;1.20;;;19.10;99.90;;;;;;5118847;27;20042;-59
2021/08/03 10:19:19;;;;;;;2.85;0.65;;;19.20;99.90;;;;;;5091114;28;20466;-59
2021/08/03 10:21:48;;;;;;;4.05;1.30;;;19.30;99.90;;;;;;5123874;27;20467;-59
2021/08/03 10:24:16;;;;;;;3.20;0.90;;;19.30;99.90;;;;;;5125906;27;20043;-59
2021/08/03 10:27:01;;;;;;;0.90;0.68;;;19.30;99.90;;;;;;5106224;27;20122;-59
2021/08/03 10:29:26;;;;;;;1.95;0.70;;;19.50;99.90;;;;;;5116610;27;20040;-59
2021/08/03 10:31:53;;;;;;;2.20;0.70;;;19.60;99.90;;;;;;5110639;28;20035;-59
2021/08/03 10:34:44;;;;;;;2.53;0.80;;;19.70;99.90;;;;;;5112828;28;20465;-60
2021/08/03 10:37:11;;;;;;;1.48;0.60;;;19.80;99.90;;;;;;5112615;28;20439;-59
2021/08/03 10:39:57;;;;;;;1.65;0.70;;;19.80;99.90;;;;;;5112614;28;20039;-59
2021/08/03 10:42:25;;;;;;;3.00;1.00;;;19.80;99.90;;;;;;5112903;28;20130;-59
2021/08/03 10:44:58;;;;;;;2.97;0.70;;;19.90;99.90;;;;;;5112733;28;20071;-60
2021/08/03 10:47:30;;;;;;;1.33;0.80;;;20.10;99.90;;;;;;5107862;28;20048;-59
2021/08/03 10:50:02;;;;;;;1.38;0.85;;;20.30;99.90;;;;;;5096004;28;20082;-59
2021/08/03 10:52:48;;;;;;;1.83;0.73;;;20.40;99.90;;;;;;5112269;28;20491;-59
2021/08/03 10:55:44;;;;;;;1.55;0.65;;;20.70;99.90;;;;;;5112450;28;20039;-60
2021/08/03 10:58:10;;;;;;;1.10;0.77;;;20.80;99.90;;;;;;5029578;28;20049;-60
2021/08/03 11:01:00;;;;;;;4.00;0.95;;;20.80;99.90;;;;;;5029871;28;20053;-60
2021/08/03 11:03:35;;;;;;;2.15;0.68;;;21.10;99.90;;;;;;5029717;28;20118;-60
2021/08/03 11:06:06;;;;;;;3.55;0.90;;;21.40;99.90;;;;;;5029548;28;20068;-59
2021/08/03 11:08:43;;;;;;;3.28;0.93;;;21.40;99.90;;;;;;5029293;28;20052;-60
2021/08/03 11:11:18;;;;;;;2.83;1.00;;;21.30;99.90;;;;;;5029680;28;20045;-59
2021/08/03 11:13:52;;;;;;;4.57;0.75;;;21.30;99.20;;;;;;5029702;28;20487;-60
2021/08/03 11:16:23;;;;;;;2.67;0.80;;;21.60;99.80;;;;;;5029456;28;20045;-60
2021/08/03 11:18:51;;;;;;;2.42;1.38;;;21.90;99.50;;;;;;5031986;28;20057;-60
2021/08/03 11:21:26;;;;;;;1.40;0.60;;;21.80;98.10;;;;;;5046291;28;20041;-60
2021/08/03 11:24:11;;;;;;;2.30;0.90;;;21.70;99.90;;;;;;5039457;28;20037;-61
2021/08/03 11:26:57;;;;;;;1.38;0.75;;;21.60;99.90;;;;;;5037008;28;20037;-60
2021/08/03 11:29:38;;;;;;;2.05;0.75;;;21.60;99.90;;;;;;5039178;28;20482;-60
2021/08/03 11:32:09;;;;;;;1.33;0.55;;;21.80;99.90;;;;;;5042059;28;20049;-60
2021/08/03 11:34:37;;;;;;;1.50;0.80;;;21.70;99.90;;;;;;5081880;28;20047;-60
2021/08/03 11:37:07;;;;;;;5.23;1.00;;;21.70;99.90;;;;;;5110983;28;20055;-60
2021/08/03 11:39:36;;;;;;;1.42;0.80;;;21.70;99.90;;;;;;5110562;28;20171;-60
2021/08/03 11:42:02;;;;;;;2.55;0.70;;;21.50;99.80;;;;;;5107288;28;20491;-60
2021/08/03 11:44:28;;;;;;;1.65;0.82;;;21.50;99.90;;;;;;5109663;28;20046;-60
2021/08/03 11:46:58;;;;;;;3.63;1.05;;;21.50;99.90;;;;;;5107282;28;20040;-59
2021/08/03 11:49:29;;;;;;;3.17;1.05;;;21.50;99.90;;;;;;5111993;28;20043;-60
2021/08/03 11:52:07;;;;;;;1.50;0.95;;;21.50;99.90;;;;;;5112216;28;20050;-60
2021/08/03 11:54:33;;;;;;;1.35;0.90;;;21.40;99.90;;;;;;5105470;28;20761;-59
2021/08/03 11:56:59;;;;;;;1.40;0.80;;;21.40;99.90;;;;;;5115454;28;20046;-60
2021/08/03 11:59:31;;;;;;;1.50;0.85;;;21.30;99.70;;;;;;5115831;28;20043;-60
2021/08/03 12:01:57;;;;;;;1.40;0.80;;;21.30;99.90;;;;;;5112988;28;20097;-60
2021/08/03 12:04:23;;;;;;;2.10;0.90;;;21.50;99.90;;;;;;5115756;28;20469;-59
2021/08/03 12:06:53;;;;;;;7.07;0.80;;;21.70;99.70;;;;;;5115739;28;20039;-60
2021/08/03 12:09:20;;;;;;;3.30;0.90;;;21.90;97.70;;;;;;5108125;28;20405;-60
2021/08/03 12:11:57;;;;;;;1.95;0.70;;;22.00;99.40;;;;;;5112378;27;20043;-60
2021/08/03 12:14:33;;;;;;;2.40;0.90;;;22.00;99.30;;;;;;5114038;28;20393;-60
2021/08/03 12:16:59;;;;;;;1.05;0.75;;;21.80;99.00;;;;;;5111690;28;20466;-60
2021/08/03 12:19:35;;;;;;;4.50;0.80;;;22.10;99.90;;;;;;5114356;28;20043;-60
2021/08/03 12:22:02;;;;;;;1.88;0.90;;;22.20;98.90;;;;;;5110802;28;20055;-60
2021/08/03 12:24:28;;;;;;;2.75;0.70;;;22.40;99.70;;;;;;5106774;28;20093;-61
2021/08/03 12:27:14;;;;;;;3.90;0.80;;;22.50;99.90;;;;;;5108117;28;20047;-60
2021/08/03 12:29:40;;;;;;;2.63;0.90;;;22.70;99.90;;;;;;5110745;28;20504;-61
2021/08/03 12:32:06;;;;;;;1.23;0.85;;;22.70;99.90;;;;;;5108890;28;20438;-60
2021/08/03 12:34:36;;;;;;;1.58;0.90;;;22.80;99.90;;;;;;5111352;28;20039;-61
2021/08/03 12:37:04;;;;;;;1.67;0.68;;;22.60;99.60;;;;;;5111220;28;20051;-60
2021/08/03 12:39:36;;;;;;;1.38;1.05;;;22.40;99.90;;;;;;5109400;28;20107;-60
2021/08/03 12:44:59;;;;;;;1.60;0.90;;;21.90;99.90;;;;;;5094204;28;20043;-60
2021/08/03 12:47:27;;;;;;;2.33;0.93;;;21.70;99.90;;;;;;5094906;28;20159;-60
2021/08/03 12:50:02;;;;;;;;;;;21.70;99.90;;;;;;5094593;28;20512;-60
2021/08/03 12:52:28;;;;;;;3.90;0.82;;;21.50;99.90;;;;;;5094290;28;20281;-60
2021/08/03 12:55:02;;;;;;;3.03;1.10;;;21.40;99.90;;;;;;5094346;28;20127;-60
2021/08/03 12:57:48;;;;;;;2.83;1.02;;;21.50;99.90;;;;;;5093946;28;20048;-60
2021/08/03 13:00:37;;;;;;;1.10;0.60;;;21.50;99.00;;;;;;5094191;28;20439;-60
2021/08/03 13:03:09;;;;;;;2.55;0.63;;;21.50;99.90;;;;;;5093938;28;20054;-61
2021/08/03 13:05:35;;;;;;;1.05;0.80;;;21.60;99.90;;;;;;5093926;28;20048;-60